AUA1PA EDDH-LSGG
Flight info
| Callsign | AUA1PA |
|---|---|
| Flight time | 1h 43m |
| Altitude | 36000 |
| Route | HABFU1B HABFU Y348 MAWEQ DCT NVO DCT LIMGO N852 SUTAL DCT GTQ DCT POGOL DCT LASAT DCT MOROK Z24 AKITO |
| Aircraft | A320/M-SDE3FGHIRWY/LB1 |
Departure
| Time | 2026-05-03 21:14 |
|---|---|
| Airport | Hamburg Helmut Schmidt Airport (EDDH) |
Arrival
| Time | 2026-05-03 22:58 |
|---|---|
| Airport | Geneva International Airport (LSGG) |
| Time | Latitude | Longitude | Altitude | Speed | Heading |
|---|---|---|---|---|---|
| 2026-05-03 20:51 | 53.63331 | 10.00348 | 49 ft | 0 kts | 86° |
| 2026-05-03 21:06 | 53.63330 | 10.00346 | 21 ft | 2 kts | 86° |
| 2026-05-03 21:06 | 53.63330 | 10.00304 | 48 ft | 4 kts | 90° |
| 2026-05-03 21:06 | 53.63329 | 10.00259 | 46 ft | 4 kts | 75° |
| 2026-05-03 21:07 | 53.63321 | 10.00233 | 45 ft | 2 kts | 358° |
| 2026-05-03 21:07 | 53.63319 | 10.00233 | 45 ft | 0 kts | 356° |
| 2026-05-03 21:08 | 53.63320 | 10.00233 | 48 ft | 1 kts | 356° |
| 2026-05-03 21:09 | 53.63366 | 10.00228 | 46 ft | 10 kts | 356° |
| 2026-05-03 21:09 | 53.63445 | 10.00218 | 48 ft | 11 kts | 355° |
| 2026-05-03 21:09 | 53.63509 | 10.00234 | 48 ft | 9 kts | 33° |
| 2026-05-03 21:09 | 53.63555 | 10.00276 | 47 ft | 7 kts | 359° |
| 2026-05-03 21:10 | 53.63593 | 10.00255 | 49 ft | 3 kts | 333° |
| 2026-05-03 21:10 | 53.63595 | 10.00253 | 49 ft | 0 kts | 332° |
| 2026-05-03 21:13 | 53.63610 | 10.00237 | 50 ft | 6 kts | 324° |
| 2026-05-03 21:13 | 53.63648 | 10.00183 | 54 ft | 6 kts | 320° |
| 2026-05-03 21:13 | 53.63672 | 10.00126 | 54 ft | 6 kts | 275° |
| 2026-05-03 21:13 | 53.63643 | 10.00047 | 53 ft | 12 kts | 229° |
| 2026-05-03 21:14 | 53.63498 | 9.99754 | 49 ft | 65 kts | 231° |
| 2026-05-03 21:14 | 53.63073 | 9.98894 | 46 ft | 124 kts | 230° |
| 2026-05-03 21:14 | 53.62431 | 9.97607 | 249 ft | 147 kts | 232° |
| 2026-05-03 21:14 | 53.61785 | 9.96321 | 975 ft | 145 kts | 232° |
| 2026-05-03 21:15 | 53.61147 | 9.95012 | 1617 ft | 144 kts | 233° |
| 2026-05-03 21:15 | 53.60510 | 9.93699 | 2207 ft | 145 kts | 233° |
| 2026-05-03 21:15 | 53.59871 | 9.92381 | 2774 ft | 145 kts | 233° |
| 2026-05-03 21:15 | 53.59230 | 9.91058 | 3289 ft | 146 kts | 233° |
| 2026-05-03 21:16 | 53.58585 | 9.89729 | 3803 ft | 147 kts | 233° |
| 2026-05-03 21:16 | 53.57937 | 9.88399 | 4332 ft | 147 kts | 232° |
| 2026-05-03 21:16 | 53.57281 | 9.87055 | 4809 ft | 153 kts | 233° |
| 2026-05-03 21:16 | 53.56560 | 9.85572 | 5019 ft | 175 kts | 232° |
| 2026-05-03 21:17 | 53.55743 | 9.83883 | 5209 ft | 198 kts | 232° |
| 2026-05-03 21:17 | 53.55141 | 9.82637 | 5366 ft | 215 kts | 232° |
| 2026-05-03 21:17 | 53.53788 | 9.79844 | 5886 ft | 243 kts | 232° |
| 2026-05-03 21:17 | 53.52703 | 9.77618 | 6624 ft | 249 kts | 231° |
| 2026-05-03 21:18 | 53.51593 | 9.75347 | 7392 ft | 253 kts | 231° |
| 2026-05-03 21:18 | 53.50465 | 9.73040 | 8162 ft | 258 kts | 231° |
| 2026-05-03 21:18 | 53.49321 | 9.70695 | 8948 ft | 261 kts | 231° |
| 2026-05-03 21:18 | 53.48239 | 9.68208 | 9699 ft | 266 kts | 237° |
| 2026-05-03 21:19 | 53.47216 | 9.65587 | 10328 ft | 275 kts | 237° |
| 2026-05-03 21:19 | 53.46123 | 9.62790 | 10532 ft | 298 kts | 237° |
| 2026-05-03 21:19 | 53.44940 | 9.59778 | 10730 ft | 319 kts | 237° |
| 2026-05-03 21:19 | 53.43701 | 9.56630 | 11284 ft | 326 kts | 237° |
| 2026-05-03 21:20 | 53.42443 | 9.53433 | 11988 ft | 330 kts | 237° |
| 2026-05-03 21:20 | 53.41176 | 9.50217 | 12704 ft | 332 kts | 237° |
| 2026-05-03 21:20 | 53.39895 | 9.46979 | 13417 ft | 335 kts | 237° |
| 2026-05-03 21:20 | 53.38605 | 9.43716 | 14077 ft | 337 kts | 236° |
| 2026-05-03 21:21 | 53.37304 | 9.40432 | 14708 ft | 339 kts | 236° |
| 2026-05-03 21:21 | 53.35994 | 9.37125 | 15294 ft | 342 kts | 236° |
| 2026-05-03 21:21 | 53.34668 | 9.33795 | 15903 ft | 345 kts | 234° |
| 2026-05-03 21:21 | 53.33075 | 9.30791 | 16499 ft | 348 kts | 222° |
| 2026-05-03 21:22 | 53.31089 | 9.28456 | 17106 ft | 352 kts | 210° |
| 2026-05-03 21:22 | 53.28800 | 9.26942 | 17712 ft | 358 kts | 197° |
| 2026-05-03 21:22 | 53.26333 | 9.26155 | 18305 ft | 362 kts | 193° |
| 2026-05-03 21:22 | 53.23847 | 9.25430 | 18837 ft | 364 kts | 193° |
| 2026-05-03 21:23 | 53.21343 | 9.24690 | 19374 ft | 366 kts | 193° |
| 2026-05-03 21:23 | 53.18829 | 9.23939 | 19923 ft | 368 kts | 193° |
| 2026-05-03 21:23 | 53.16334 | 9.23189 | 20445 ft | 370 kts | 193° |
| 2026-05-03 21:23 | 53.13794 | 9.22434 | 20972 ft | 372 kts | 193° |
| 2026-05-03 21:24 | 53.11239 | 9.21681 | 21473 ft | 374 kts | 193° |
| 2026-05-03 21:24 | 53.08667 | 9.20923 | 21978 ft | 376 kts | 193° |
| 2026-05-03 21:24 | 53.06083 | 9.20157 | 22463 ft | 378 kts | 193° |
| 2026-05-03 21:24 | 53.03485 | 9.19389 | 22936 ft | 380 kts | 193° |
| 2026-05-03 21:25 | 53.00874 | 9.18621 | 23400 ft | 382 kts | 192° |
| 2026-05-03 21:25 | 52.98248 | 9.17851 | 23796 ft | 384 kts | 192° |
| 2026-05-03 21:25 | 52.95643 | 9.16903 | 24156 ft | 384 kts | 199° |
| 2026-05-03 21:25 | 52.93166 | 9.15247 | 24506 ft | 384 kts | 208° |
| 2026-05-03 21:26 | 52.90803 | 9.13161 | 24879 ft | 386 kts | 208° |
| 2026-05-03 21:26 | 52.88439 | 9.11076 | 25312 ft | 384 kts | 208° |
| 2026-05-03 21:26 | 52.86073 | 9.08997 | 25708 ft | 385 kts | 208° |
| 2026-05-03 21:26 | 52.83700 | 9.06920 | 26036 ft | 387 kts | 208° |
| 2026-05-03 21:27 | 52.81315 | 9.04839 | 26360 ft | 389 kts | 208° |
| 2026-05-03 21:27 | 52.78917 | 9.02750 | 26678 ft | 390 kts | 208° |
| 2026-05-03 21:27 | 52.76510 | 9.00652 | 26987 ft | 392 kts | 208° |
| 2026-05-03 21:27 | 52.74090 | 8.98549 | 27285 ft | 394 kts | 208° |
| 2026-05-03 21:28 | 52.71659 | 8.96438 | 27589 ft | 396 kts | 208° |
| 2026-05-03 21:28 | 52.69217 | 8.94321 | 27882 ft | 397 kts | 208° |
| 2026-05-03 21:28 | 52.66763 | 8.92195 | 28143 ft | 399 kts | 208° |
| 2026-05-03 21:28 | 52.64299 | 8.90053 | 28395 ft | 401 kts | 208° |
| 2026-05-03 21:29 | 52.61823 | 8.87902 | 28649 ft | 403 kts | 208° |
| 2026-05-03 21:29 | 52.59338 | 8.85748 | 28905 ft | 405 kts | 208° |
| 2026-05-03 21:29 | 52.56844 | 8.83587 | 29152 ft | 406 kts | 208° |
| 2026-05-03 21:29 | 52.54338 | 8.81414 | 29391 ft | 408 kts | 208° |
| 2026-05-03 21:30 | 52.51824 | 8.79243 | 29618 ft | 409 kts | 208° |
| 2026-05-03 21:30 | 52.49301 | 8.77074 | 29911 ft | 409 kts | 208° |
| 2026-05-03 21:30 | 52.46786 | 8.74912 | 30195 ft | 408 kts | 208° |
| 2026-05-03 21:30 | 52.44277 | 8.72759 | 30464 ft | 407 kts | 208° |
| 2026-05-03 21:31 | 52.41768 | 8.70616 | 30731 ft | 406 kts | 208° |
| 2026-05-03 21:31 | 52.39263 | 8.68479 | 30993 ft | 406 kts | 208° |
| 2026-05-03 21:31 | 52.36758 | 8.66339 | 31253 ft | 405 kts | 208° |
| 2026-05-03 21:31 | 52.34263 | 8.64206 | 31520 ft | 405 kts | 208° |
| 2026-05-03 21:32 | 52.31767 | 8.62076 | 31789 ft | 404 kts | 208° |
| 2026-05-03 21:32 | 52.29277 | 8.59950 | 32050 ft | 404 kts | 208° |
| 2026-05-03 21:32 | 52.26887 | 8.57569 | 32317 ft | 403 kts | 216° |
| 2026-05-03 21:32 | 52.24728 | 8.54655 | 32597 ft | 403 kts | 220° |
| 2026-05-03 21:33 | 52.22607 | 8.51679 | 32863 ft | 402 kts | 220° |
| 2026-05-03 21:33 | 52.21199 | 8.49711 | 33018 ft | 402 kts | 220° |
| 2026-05-03 21:33 | 52.19074 | 8.46748 | 33276 ft | 402 kts | 219° |
| 2026-05-03 21:33 | 52.16952 | 8.43790 | 33539 ft | 401 kts | 220° |
| 2026-05-03 21:34 | 52.14833 | 8.40837 | 33797 ft | 401 kts | 220° |
| 2026-05-03 21:34 | 52.12717 | 8.37893 | 34081 ft | 400 kts | 220° |
| 2026-05-03 21:34 | 52.10597 | 8.34951 | 34276 ft | 400 kts | 220° |
| 2026-05-03 21:34 | 52.08478 | 8.32010 | 34475 ft | 401 kts | 220° |
| 2026-05-03 21:35 | 52.06351 | 8.29069 | 34668 ft | 402 kts | 220° |
| 2026-05-03 21:35 | 52.04221 | 8.26131 | 34852 ft | 402 kts | 220° |
| 2026-05-03 21:35 | 52.02087 | 8.23191 | 35031 ft | 403 kts | 220° |
| 2026-05-03 21:35 | 51.99953 | 8.20250 | 35196 ft | 403 kts | 220° |
| 2026-05-03 21:36 | 51.97812 | 8.17299 | 35344 ft | 404 kts | 220° |
| 2026-05-03 21:36 | 51.95671 | 8.14345 | 35504 ft | 404 kts | 220° |
| 2026-05-03 21:36 | 51.93526 | 8.11395 | 35662 ft | 405 kts | 220° |
| 2026-05-03 21:36 | 51.91374 | 8.08446 | 35830 ft | 405 kts | 220° |
| 2026-05-03 21:37 | 51.89219 | 8.05501 | 35937 ft | 406 kts | 220° |
| 2026-05-03 21:37 | 51.87059 | 8.02548 | 35954 ft | 407 kts | 220° |
| 2026-05-03 21:37 | 51.82734 | 7.96642 | 35956 ft | 407 kts | 220° |
| 2026-05-03 21:38 | 51.78403 | 7.90751 | 35961 ft | 407 kts | 220° |
| 2026-05-03 21:38 | 51.74070 | 7.84863 | 35963 ft | 407 kts | 220° |
| 2026-05-03 21:39 | 51.69738 | 7.78984 | 35970 ft | 407 kts | 220° |
| 2026-05-03 21:39 | 51.65396 | 7.73113 | 35978 ft | 407 kts | 220° |
| 2026-05-03 21:40 | 51.61045 | 7.67261 | 35973 ft | 408 kts | 220° |
| 2026-05-03 21:40 | 51.56692 | 7.61413 | 35968 ft | 408 kts | 220° |
| 2026-05-03 21:41 | 51.52329 | 7.55569 | 35960 ft | 408 kts | 220° |
| 2026-05-03 21:41 | 51.47991 | 7.49766 | 35959 ft | 409 kts | 220° |
| 2026-05-03 21:42 | 51.43623 | 7.43926 | 35971 ft | 409 kts | 220° |
| 2026-05-03 21:42 | 51.39247 | 7.38095 | 35971 ft | 409 kts | 220° |
| 2026-05-03 21:43 | 51.34867 | 7.32277 | 35978 ft | 409 kts | 220° |
| 2026-05-03 21:43 | 51.30473 | 7.26476 | 35956 ft | 410 kts | 220° |
| 2026-05-03 21:44 | 51.26076 | 7.20682 | 35966 ft | 410 kts | 220° |
| 2026-05-03 21:44 | 51.21679 | 7.14885 | 35984 ft | 410 kts | 220° |
| 2026-05-03 21:45 | 51.17282 | 7.09102 | 35989 ft | 410 kts | 220° |
| 2026-05-03 21:45 | 51.12879 | 7.03331 | 35987 ft | 410 kts | 220° |
| 2026-05-03 21:46 | 51.08466 | 6.97572 | 35960 ft | 410 kts | 220° |
| 2026-05-03 21:46 | 51.04043 | 6.91817 | 35977 ft | 411 kts | 220° |
| 2026-05-03 21:47 | 50.99619 | 6.86070 | 35965 ft | 411 kts | 220° |
| 2026-05-03 21:47 | 50.95196 | 6.80329 | 35967 ft | 411 kts | 220° |
| 2026-05-03 21:48 | 50.90768 | 6.74604 | 35963 ft | 411 kts | 220° |
| 2026-05-03 21:48 | 50.86439 | 6.69025 | 35967 ft | 411 kts | 220° |
| 2026-05-03 21:49 | 50.81661 | 6.64103 | 35964 ft | 413 kts | 205° |
| 2026-05-03 21:49 | 50.76087 | 6.61758 | 35965 ft | 417 kts | 194° |
| 2026-05-03 21:50 | 50.70389 | 6.60019 | 35965 ft | 417 kts | 194° |
| 2026-05-03 21:50 | 50.64688 | 6.58275 | 35960 ft | 417 kts | 194° |
| 2026-05-03 21:51 | 50.58981 | 6.56540 | 35963 ft | 418 kts | 194° |
| 2026-05-03 21:51 | 50.53274 | 6.54813 | 35966 ft | 418 kts | 194° |
| 2026-05-03 21:52 | 50.47563 | 6.53082 | 35966 ft | 418 kts | 194° |
| 2026-05-03 21:52 | 50.41851 | 6.51345 | 35976 ft | 418 kts | 194° |
| 2026-05-03 21:53 | 50.36184 | 6.49639 | 35983 ft | 417 kts | 194° |
| 2026-05-03 21:53 | 50.30483 | 6.47921 | 35985 ft | 417 kts | 194° |
| 2026-05-03 21:54 | 50.24783 | 6.46215 | 35985 ft | 417 kts | 194° |
| 2026-05-03 21:54 | 50.19089 | 6.44511 | 35978 ft | 416 kts | 194° |
| 2026-05-03 21:55 | 50.13399 | 6.42822 | 35979 ft | 416 kts | 194° |
| 2026-05-03 21:55 | 50.07704 | 6.41129 | 35982 ft | 416 kts | 194° |
| 2026-05-03 21:56 | 50.02019 | 6.39436 | 35987 ft | 416 kts | 194° |
| 2026-05-03 21:56 | 49.96323 | 6.37735 | 36003 ft | 417 kts | 193° |
| 2026-05-03 21:57 | 49.90582 | 6.36033 | 35999 ft | 418 kts | 193° |
| 2026-05-03 21:57 | 49.84910 | 6.34363 | 35999 ft | 418 kts | 193° |
| 2026-05-03 21:58 | 49.79189 | 6.32689 | 35995 ft | 418 kts | 194° |
| 2026-05-03 21:58 | 49.73470 | 6.31017 | 36003 ft | 418 kts | 194° |
| 2026-05-03 21:59 | 49.67750 | 6.29380 | 36004 ft | 419 kts | 190° |
| 2026-05-03 21:59 | 49.61894 | 6.29764 | 36006 ft | 428 kts | 171° |
| 2026-05-03 22:00 | 49.56261 | 6.32981 | 35966 ft | 434 kts | 162° |
| 2026-05-03 22:00 | 49.50690 | 6.36582 | 35977 ft | 434 kts | 162° |
| 2026-05-03 22:01 | 49.45114 | 6.40180 | 35986 ft | 435 kts | 162° |
| 2026-05-03 22:01 | 49.39564 | 6.43928 | 35995 ft | 436 kts | 161° |
| 2026-05-03 22:02 | 49.34033 | 6.47745 | 35992 ft | 436 kts | 161° |
| 2026-05-03 22:02 | 49.28633 | 6.51448 | 35996 ft | 436 kts | 161° |
| 2026-05-03 22:03 | 49.23082 | 6.55202 | 36002 ft | 436 kts | 161° |
| 2026-05-03 22:03 | 49.17524 | 6.58951 | 36010 ft | 437 kts | 161° |
| 2026-05-03 22:04 | 49.11964 | 6.62692 | 36013 ft | 437 kts | 161° |
| 2026-05-03 22:04 | 49.06395 | 6.66432 | 36005 ft | 438 kts | 161° |
| 2026-05-03 22:05 | 49.00787 | 6.70037 | 36012 ft | 435 kts | 167° |
| 2026-05-03 22:05 | 48.94912 | 6.71473 | 36016 ft | 424 kts | 184° |
| 2026-05-03 22:06 | 48.89023 | 6.71229 | 36022 ft | 424 kts | 185° |
| 2026-05-03 22:06 | 48.83124 | 6.70999 | 36012 ft | 424 kts | 185° |
| 2026-05-03 22:07 | 48.77218 | 6.70778 | 36016 ft | 425 kts | 185° |
| 2026-05-03 22:07 | 48.71304 | 6.70550 | 36022 ft | 425 kts | 185° |
| 2026-05-03 22:08 | 48.65430 | 6.70319 | 36023 ft | 425 kts | 185° |
| 2026-05-03 22:08 | 48.59511 | 6.70088 | 36027 ft | 425 kts | 185° |
| 2026-05-03 22:09 | 48.53592 | 6.69858 | 36032 ft | 425 kts | 185° |
| 2026-05-03 22:10 | 48.44716 | 6.69521 | 36023 ft | 426 kts | 185° |
| 2026-05-03 22:10 | 48.38788 | 6.69288 | 36026 ft | 426 kts | 185° |
| 2026-05-03 22:11 | 48.32860 | 6.69060 | 36032 ft | 426 kts | 185° |
| 2026-05-03 22:11 | 48.26927 | 6.68835 | 36044 ft | 426 kts | 185° |
| 2026-05-03 22:12 | 48.20994 | 6.68611 | 36040 ft | 426 kts | 185° |
| 2026-05-03 22:12 | 48.15064 | 6.68379 | 36049 ft | 426 kts | 185° |
| 2026-05-03 22:13 | 48.09134 | 6.68147 | 36053 ft | 426 kts | 185° |
| 2026-05-03 22:13 | 48.03213 | 6.67921 | 36053 ft | 426 kts | 185° |
| 2026-05-03 22:14 | 47.97295 | 6.67697 | 36066 ft | 425 kts | 185° |
| 2026-05-03 22:14 | 47.91383 | 6.67477 | 36062 ft | 425 kts | 185° |
| 2026-05-03 22:15 | 47.85478 | 6.67260 | 36067 ft | 424 kts | 185° |
| 2026-05-03 22:15 | 47.79579 | 6.67044 | 36047 ft | 424 kts | 185° |
| 2026-05-03 22:16 | 47.73682 | 6.66819 | 36063 ft | 423 kts | 185° |
| 2026-05-03 22:16 | 47.67795 | 6.66586 | 36067 ft | 423 kts | 185° |
| 2026-05-03 22:17 | 47.61908 | 6.66363 | 36065 ft | 423 kts | 185° |
| 2026-05-03 22:17 | 47.56021 | 6.66144 | 36060 ft | 423 kts | 185° |
| 2026-05-03 22:18 | 47.50177 | 6.65936 | 36063 ft | 423 kts | 185° |
| 2026-05-03 22:18 | 47.44287 | 6.65713 | 36064 ft | 423 kts | 185° |
| 2026-05-03 22:19 | 47.38400 | 6.65493 | 36064 ft | 423 kts | 185° |
| 2026-05-03 22:19 | 47.32509 | 6.65272 | 36053 ft | 424 kts | 185° |
| 2026-05-03 22:20 | 47.27569 | 6.65090 | 36060 ft | 424 kts | 185° |
| 2026-05-03 22:20 | 47.21904 | 6.63495 | 36060 ft | 415 kts | 204° |
| 2026-05-03 22:21 | 47.17001 | 6.59184 | 35930 ft | 410 kts | 223° |
| 2026-05-03 22:21 | 47.14874 | 6.56396 | 35676 ft | 409 kts | 223° |
| 2026-05-03 22:21 | 47.12754 | 6.53610 | 35426 ft | 409 kts | 223° |
| 2026-05-03 22:21 | 47.10634 | 6.50829 | 35179 ft | 409 kts | 223° |
| 2026-05-03 22:22 | 47.08515 | 6.48053 | 34934 ft | 409 kts | 223° |
| 2026-05-03 22:22 | 47.06393 | 6.45277 | 34570 ft | 409 kts | 223° |
| 2026-05-03 22:22 | 47.04261 | 6.42492 | 33657 ft | 412 kts | 223° |
| 2026-05-03 22:22 | 47.02115 | 6.39695 | 32764 ft | 413 kts | 223° |
| 2026-05-03 22:23 | 46.99965 | 6.36897 | 31836 ft | 415 kts | 223° |
| 2026-05-03 22:23 | 46.97803 | 6.34085 | 30990 ft | 416 kts | 223° |
| 2026-05-03 22:23 | 46.95637 | 6.31275 | 30299 ft | 414 kts | 223° |
| 2026-05-03 22:23 | 46.93498 | 6.28504 | 29673 ft | 408 kts | 223° |
| 2026-05-03 22:24 | 46.91382 | 6.25766 | 29036 ft | 404 kts | 223° |
| 2026-05-03 22:24 | 46.89289 | 6.23056 | 28420 ft | 399 kts | 223° |
| 2026-05-03 22:24 | 46.87227 | 6.20372 | 27797 ft | 395 kts | 223° |
| 2026-05-03 22:24 | 46.85186 | 6.17710 | 27221 ft | 391 kts | 223° |
| 2026-05-03 22:25 | 46.83166 | 6.15071 | 26637 ft | 388 kts | 222° |
| 2026-05-03 22:25 | 46.81162 | 6.12457 | 26058 ft | 385 kts | 222° |
| 2026-05-03 22:25 | 46.79175 | 6.09867 | 25497 ft | 382 kts | 222° |
| 2026-05-03 22:25 | 46.77201 | 6.07302 | 24925 ft | 379 kts | 222° |
| 2026-05-03 22:26 | 46.75236 | 6.04754 | 24376 ft | 376 kts | 221° |
| 2026-05-03 22:26 | 46.73284 | 6.02228 | 23834 ft | 374 kts | 221° |
| 2026-05-03 22:26 | 46.71344 | 5.99721 | 23252 ft | 372 kts | 221° |
| 2026-05-03 22:26 | 46.69419 | 5.97240 | 22735 ft | 368 kts | 221° |
| 2026-05-03 22:27 | 46.67513 | 5.94782 | 22268 ft | 364 kts | 221° |
| 2026-05-03 22:27 | 46.65630 | 5.92354 | 21789 ft | 360 kts | 221° |
| 2026-05-03 22:27 | 46.63774 | 5.89971 | 21596 ft | 350 kts | 221° |
| 2026-05-03 22:27 | 46.61979 | 5.87676 | 21455 ft | 338 kts | 221° |
| 2026-05-03 22:28 | 46.60204 | 5.85527 | 21314 ft | 327 kts | 213° |
| 2026-05-03 22:28 | 46.58162 | 5.84202 | 21129 ft | 321 kts | 194° |
| 2026-05-03 22:28 | 46.55966 | 5.83960 | 20969 ft | 326 kts | 177° |
| 2026-05-03 22:28 | 46.53760 | 5.84847 | 20374 ft | 336 kts | 154° |
| 2026-05-03 22:29 | 46.51805 | 5.86720 | 19864 ft | 340 kts | 148° |
| 2026-05-03 22:29 | 46.49881 | 5.88678 | 19572 ft | 334 kts | 148° |
| 2026-05-03 22:29 | 46.47982 | 5.90602 | 19208 ft | 332 kts | 148° |
| 2026-05-03 22:29 | 46.46089 | 5.92505 | 18830 ft | 330 kts | 148° |
| 2026-05-03 22:30 | 46.44201 | 5.94393 | 18457 ft | 329 kts | 147° |
| 2026-05-03 22:30 | 46.42322 | 5.96270 | 18070 ft | 327 kts | 147° |
| 2026-05-03 22:30 | 46.40453 | 5.98141 | 17674 ft | 325 kts | 147° |
| 2026-05-03 22:30 | 46.38648 | 6.00086 | 17305 ft | 324 kts | 137° |
| 2026-05-03 22:31 | 46.37353 | 6.02738 | 16915 ft | 326 kts | 115° |
| 2026-05-03 22:31 | 46.36871 | 6.05943 | 16510 ft | 330 kts | 91° |
| 2026-05-03 22:31 | 46.37308 | 6.09191 | 16136 ft | 332 kts | 67° |
| 2026-05-03 22:31 | 46.38591 | 6.11954 | 15749 ft | 333 kts | 46° |
| 2026-05-03 22:32 | 46.40212 | 6.14347 | 15353 ft | 333 kts | 46° |
| 2026-05-03 22:32 | 46.41842 | 6.16728 | 14961 ft | 333 kts | 46° |
| 2026-05-03 22:32 | 46.43477 | 6.19112 | 14613 ft | 332 kts | 46° |
| 2026-05-03 22:32 | 46.45098 | 6.21483 | 14292 ft | 330 kts | 47° |
| 2026-05-03 22:33 | 46.46710 | 6.23852 | 13960 ft | 329 kts | 46° |
| 2026-05-03 22:33 | 46.48311 | 6.26214 | 13614 ft | 327 kts | 47° |
| 2026-05-03 22:33 | 46.49890 | 6.28541 | 13433 ft | 319 kts | 47° |
| 2026-05-03 22:33 | 46.51424 | 6.30808 | 13305 ft | 310 kts | 47° |
| 2026-05-03 22:34 | 46.52906 | 6.33018 | 13165 ft | 301 kts | 47° |
| 2026-05-03 22:34 | 46.54342 | 6.35177 | 13023 ft | 293 kts | 47° |
| 2026-05-03 22:34 | 46.55746 | 6.37299 | 12789 ft | 289 kts | 47° |
| 2026-05-03 22:34 | 46.57131 | 6.39401 | 12477 ft | 288 kts | 48° |
| 2026-05-03 22:35 | 46.58513 | 6.41503 | 12159 ft | 287 kts | 48° |
| 2026-05-03 22:35 | 46.59889 | 6.43600 | 11841 ft | 286 kts | 48° |
| 2026-05-03 22:35 | 46.61260 | 6.45690 | 11531 ft | 285 kts | 48° |
| 2026-05-03 22:35 | 46.62629 | 6.47774 | 11212 ft | 284 kts | 48° |
| 2026-05-03 22:36 | 46.63986 | 6.49847 | 10931 ft | 282 kts | 48° |
| 2026-05-03 22:36 | 46.65332 | 6.51905 | 10637 ft | 280 kts | 48° |
| 2026-05-03 22:36 | 46.66665 | 6.53943 | 10391 ft | 276 kts | 48° |
| 2026-05-03 22:36 | 46.67983 | 6.55954 | 10151 ft | 273 kts | 48° |
| 2026-05-03 22:37 | 46.69291 | 6.57950 | 9967 ft | 272 kts | 48° |
| 2026-05-03 22:37 | 46.70594 | 6.59945 | 9837 ft | 272 kts | 48° |
| 2026-05-03 22:37 | 46.71894 | 6.61938 | 9707 ft | 271 kts | 48° |
| 2026-05-03 22:37 | 46.73155 | 6.63956 | 9567 ft | 265 kts | 57° |
| 2026-05-03 22:38 | 46.73928 | 6.66323 | 9440 ft | 256 kts | 81° |
| 2026-05-03 22:38 | 46.74009 | 6.68826 | 9312 ft | 248 kts | 104° |
| 2026-05-03 22:38 | 46.73428 | 6.71142 | 9183 ft | 241 kts | 126° |
| 2026-05-03 22:38 | 46.72322 | 6.72923 | 9059 ft | 236 kts | 147° |
| 2026-05-03 22:39 | 46.70874 | 6.73979 | 8920 ft | 233 kts | 167° |
| 2026-05-03 22:39 | 46.69282 | 6.74205 | 8796 ft | 230 kts | 187° |
| 2026-05-03 22:39 | 46.67744 | 6.73599 | 8668 ft | 231 kts | 206° |
| 2026-05-03 22:39 | 46.66448 | 6.72231 | 8541 ft | 232 kts | 223° |
| 2026-05-03 22:40 | 46.65293 | 6.70583 | 8415 ft | 233 kts | 223° |
| 2026-05-03 22:40 | 46.64129 | 6.68939 | 8289 ft | 233 kts | 223° |
| 2026-05-03 22:40 | 46.62962 | 6.67297 | 8163 ft | 233 kts | 223° |
| 2026-05-03 22:40 | 46.61798 | 6.65662 | 8036 ft | 233 kts | 223° |
| 2026-05-03 22:41 | 46.60631 | 6.64029 | 7908 ft | 233 kts | 222° |
| 2026-05-03 22:41 | 46.59465 | 6.62398 | 7778 ft | 233 kts | 223° |
| 2026-05-03 22:41 | 46.58296 | 6.60765 | 7661 ft | 233 kts | 222° |
| 2026-05-03 22:41 | 46.57129 | 6.59132 | 7529 ft | 233 kts | 222° |
| 2026-05-03 22:42 | 46.55959 | 6.57498 | 7416 ft | 233 kts | 223° |
| 2026-05-03 22:42 | 46.54790 | 6.55864 | 7294 ft | 233 kts | 223° |
| 2026-05-03 22:42 | 46.53622 | 6.54231 | 7169 ft | 233 kts | 223° |
| 2026-05-03 22:42 | 46.52452 | 6.52596 | 7052 ft | 233 kts | 222° |
| 2026-05-03 22:43 | 46.51275 | 6.50978 | 6932 ft | 233 kts | 218° |
| 2026-05-03 22:43 | 46.50012 | 6.49523 | 6996 ft | 233 kts | 220° |
| 2026-05-03 22:43 | 46.48829 | 6.47911 | 7004 ft | 233 kts | 224° |
| 2026-05-03 22:43 | 46.47695 | 6.46230 | 7006 ft | 233 kts | 224° |
| 2026-05-03 22:44 | 46.46564 | 6.44540 | 7000 ft | 234 kts | 224° |
| 2026-05-03 22:44 | 46.45445 | 6.42874 | 6899 ft | 224 kts | 224° |
| 2026-05-03 22:44 | 46.44365 | 6.41268 | 6723 ft | 221 kts | 224° |
| 2026-05-03 22:44 | 46.43293 | 6.39677 | 6466 ft | 220 kts | 223° |
| 2026-05-03 22:45 | 46.42227 | 6.38095 | 6178 ft | 219 kts | 224° |
| 2026-05-03 22:45 | 46.41165 | 6.36520 | 5889 ft | 217 kts | 224° |
| 2026-05-03 22:45 | 46.40113 | 6.34960 | 5600 ft | 216 kts | 224° |
| 2026-05-03 22:45 | 46.39070 | 6.33414 | 5312 ft | 214 kts | 224° |
| 2026-05-03 22:46 | 46.38036 | 6.31883 | 5035 ft | 212 kts | 224° |
| 2026-05-03 22:46 | 46.37010 | 6.30365 | 4754 ft | 210 kts | 225° |
| 2026-05-03 22:46 | 46.35994 | 6.28862 | 4469 ft | 208 kts | 225° |
| 2026-05-03 22:46 | 46.34983 | 6.27367 | 4189 ft | 207 kts | 225° |
| 2026-05-03 22:47 | 46.33980 | 6.25885 | 3921 ft | 205 kts | 225° |
| 2026-05-03 22:47 | 46.32995 | 6.24430 | 3660 ft | 200 kts | 225° |
| 2026-05-03 22:47 | 46.32044 | 6.23026 | 3381 ft | 189 kts | 225° |
| 2026-05-03 22:47 | 46.31158 | 6.21719 | 3140 ft | 176 kts | 225° |
| 2026-05-03 22:48 | 46.30330 | 6.20499 | 2902 ft | 164 kts | 225° |
| 2026-05-03 22:48 | 46.29569 | 6.19376 | 2705 ft | 151 kts | 225° |
| 2026-05-03 22:48 | 46.28845 | 6.18310 | 2493 ft | 147 kts | 225° |
| 2026-05-03 22:48 | 46.28134 | 6.17262 | 2287 ft | 146 kts | 226° |
| 2026-05-03 22:49 | 46.27425 | 6.16220 | 2090 ft | 145 kts | 226° |
| 2026-05-03 22:49 | 46.26714 | 6.15174 | 1895 ft | 146 kts | 225° |
| 2026-05-03 22:49 | 46.26011 | 6.14146 | 1698 ft | 145 kts | 225° |
| 2026-05-03 22:49 | 46.25293 | 6.13093 | 1515 ft | 145 kts | 225° |
| 2026-05-03 22:50 | 46.24591 | 6.12056 | 1377 ft | 140 kts | 226° |
| 2026-05-03 22:50 | 46.23972 | 6.11183 | 1378 ft | 123 kts | 222° |
| 2026-05-03 22:50 | 46.23238 | 6.10245 | 1758 ft | 151 kts | 220° |
| 2026-05-03 22:50 | 46.22421 | 6.09259 | 2536 ft | 149 kts | 219° |
| 2026-05-03 22:51 | 46.22081 | 6.07989 | 3189 ft | 168 kts | 305° |
| 2026-05-03 22:51 | 46.23285 | 6.08129 | 2705 ft | 237 kts | 49° |
| 2026-05-03 22:51 | 46.24415 | 6.10119 | 2972 ft | 277 kts | 51° |
| 2026-05-03 22:51 | 46.25744 | 6.12480 | 3010 ft | 327 kts | 51° |
| 2026-05-03 22:52 | 46.27275 | 6.15194 | 3011 ft | 365 kts | 51° |
| 2026-05-03 22:52 | 46.28866 | 6.18019 | 3012 ft | 360 kts | 51° |
| 2026-05-03 22:52 | 46.30444 | 6.20818 | 3009 ft | 359 kts | 51° |
| 2026-05-03 22:52 | 46.32021 | 6.23617 | 3009 ft | 359 kts | 51° |
| 2026-05-03 22:53 | 46.33595 | 6.26418 | 3008 ft | 359 kts | 51° |
| 2026-05-03 22:53 | 46.35172 | 6.29220 | 3009 ft | 359 kts | 51° |
| 2026-05-03 22:53 | 46.36706 | 6.31950 | 3009 ft | 336 kts | 51° |
| 2026-05-03 22:53 | 46.38286 | 6.34237 | 2957 ft | 312 kts | 21° |
| 2026-05-03 22:54 | 46.39872 | 6.33107 | 2429 ft | 285 kts | 267° |
| 2026-05-03 22:54 | 46.38908 | 6.31012 | 2695 ft | 243 kts | 216° |
| 2026-05-03 22:54 | 46.37585 | 6.29661 | 2728 ft | 225 kts | 214° |
| 2026-05-03 22:54 | 46.36324 | 6.28371 | 2730 ft | 220 kts | 215° |
| 2026-05-03 22:55 | 46.35089 | 6.27062 | 2731 ft | 220 kts | 217° |
| 2026-05-03 22:55 | 46.33897 | 6.25664 | 2731 ft | 220 kts | 222° |
| 2026-05-03 22:55 | 46.32792 | 6.24127 | 2731 ft | 221 kts | 225° |
| 2026-05-03 22:55 | 46.31713 | 6.22542 | 2732 ft | 221 kts | 225° |
| 2026-05-03 22:56 | 46.30647 | 6.20966 | 2733 ft | 213 kts | 225° |
| 2026-05-03 22:56 | 46.29680 | 6.19540 | 2666 ft | 185 kts | 225° |
| 2026-05-03 22:56 | 46.28835 | 6.18295 | 2486 ft | 162 kts | 225° |
| 2026-05-03 22:56 | 46.28075 | 6.17177 | 2260 ft | 151 kts | 226° |
| 2026-05-03 22:57 | 46.27352 | 6.16110 | 2060 ft | 146 kts | 226° |
| 2026-05-03 22:57 | 46.26644 | 6.15065 | 1877 ft | 145 kts | 226° |
| 2026-05-03 22:57 | 46.25937 | 6.14036 | 1690 ft | 144 kts | 226° |
| 2026-05-03 22:57 | 46.25240 | 6.13007 | 1483 ft | 143 kts | 226° |
| 2026-05-03 22:58 | 46.24546 | 6.11995 | 1375 ft | 137 kts | 226° |
| 2026-05-03 22:58 | 46.23969 | 6.11138 | 1379 ft | 96 kts | 225° |
| 2026-05-03 22:58 | 46.23624 | 6.10625 | 1383 ft | 49 kts | 225° |
| 2026-05-03 22:58 | 46.23395 | 6.10304 | 1398 ft | 41 kts | 223° |
| 2026-05-03 22:59 | 46.23225 | 6.10130 | 1401 ft | 28 kts | 202° |
| 2026-05-03 22:59 | 46.23061 | 6.10085 | 1403 ft | 23 kts | 144° |
| 2026-05-03 22:59 | 46.23103 | 6.10270 | 1395 ft | 24 kts | 25° |
| 2026-05-03 22:59 | 46.23243 | 6.10413 | 1398 ft | 26 kts | 45° |
| 2026-05-03 23:00 | 46.23371 | 6.10598 | 1396 ft | 20 kts | 45° |
| 2026-05-03 23:00 | 46.23398 | 6.10736 | 1399 ft | 16 kts | 130° |
| 2026-05-03 23:00 | 46.23380 | 6.10879 | 1401 ft | 17 kts | 52° |
| 2026-05-03 23:00 | 46.23417 | 6.10935 | 1393 ft | 0 kts | 45° |
| 2026-05-03 23:01 | 46.23423 | 6.10943 | 1393 ft | 3 kts | 46° |
| 2026-05-03 23:01 | 46.23425 | 6.10971 | 1399 ft | 3 kts | 103° |
| 2026-05-03 23:01 | 46.23413 | 6.10994 | 1395 ft | 3 kts | 135° |
| 2026-05-03 23:02 | 46.23386 | 6.11033 | 1393 ft | 7 kts | 135° |
| 2026-05-03 23:02 | 46.23381 | 6.11039 | 1393 ft | 0 kts | 135° |